Time;durP1;ratioP1;P1;durP2;ratioP2;P2;SDS_P1;SDS_P2;PMS_P1;PMS_P2;Temp;Humidity;BMP_temperature;BMP_pressure;BME280_temperature;BME280_humidity;BME280_pressure;Samples;Min_cycle;Max_cycle;Signal;HPM_P1;HPM_P2
2022/01/08 00:01:00;;;;;;;10.27;4.43;;;;;;;14.18;50.94;100860.09;5045287;28;20454;-68
2022/01/08 00:03:25;;;;;;;8.00;4.30;;;;;;;14.18;50.66;100861.81;5046312;28;20539;-68
2022/01/08 00:05:51;;;;;;;8.10;4.45;;;;;;;14.18;50.83;100861.81;5030850;28;20120;-68
2022/01/08 00:08:16;;;;;;;8.93;4.00;;;;;;;14.16;50.78;100865.28;5047879;28;20037;-67
2022/01/08 00:10:41;;;;;;;9.20;4.40;;;;;;;14.18;50.55;100869.56;5046651;28;20033;-67
2022/01/08 00:13:08;;;;;;;8.07;4.25;;;;;;;14.16;50.64;100873.03;5045854;28;20061;-67
2022/01/08 00:15:34;;;;;;;7.63;4.13;;;;;;;14.18;50.53;100866.97;5046886;28;20369;-67
2022/01/08 00:18:00;;;;;;;9.05;4.55;;;;;;;14.16;50.92;100866.97;5046585;28;20450;-69
2022/01/08 00:20:27;;;;;;;11.50;4.07;;;;;;;14.15;51.25;100873.88;5047420;28;20498;-67
2022/01/08 00:22:54;;;;;;;7.80;4.07;;;;;;;14.16;50.78;100879.94;5041150;28;20048;-67
2022/01/08 00:25:20;;;;;;;9.50;4.30;;;;;;;14.14;50.90;100885.09;5046397;28;20402;-67
2022/01/08 00:27:45;;;;;;;7.90;3.90;;;;;;;14.14;50.59;100885.09;5046737;28;20033;-67
2022/01/08 00:30:13;;;;;;;9.32;4.40;;;;;;;14.16;50.86;100877.34;5046304;28;20034;-67
2022/01/08 00:32:39;;;;;;;7.95;4.50;;;;;;;14.14;50.56;100877.31;5032653;28;20045;-67
2022/01/08 00:35:07;;;;;;;11.57;4.40;;;;;;;14.13;50.75;100883.34;5027250;28;20422;-67
2022/01/08 00:37:34;;;;;;;9.18;3.80;;;;;;;14.12;51.36;100889.38;5045166;28;20067;-67
2022/01/08 00:40:00;;;;;;;8.70;3.92;;;;;;;14.10;51.30;100885.91;5043449;28;20049;-73
2022/01/08 00:42:25;;;;;;;8.05;3.65;;;;;;;14.07;51.69;100891.06;5025916;28;20037;-73
2022/01/08 00:44:51;;;;;;;7.78;3.55;;;;;;;14.06;51.10;100897.06;5045080;28;20463;-73
2022/01/08 00:47:16;;;;;;;7.97;3.72;;;;;;;14.06;51.29;100896.19;5045706;28;20391;-72
2022/01/08 00:49:41;;;;;;;9.07;3.78;;;;;;;14.07;50.75;100909.19;5044738;28;20029;-69
2022/01/08 00:52:07;;;;;;;8.00;3.85;;;;;;;14.08;51.10;100910.91;5022579;28;20079;-70
2022/01/08 00:54:35;;;;;;;7.55;3.75;;;;;;;14.07;51.38;100916.97;5042569;28;20482;-72
2022/01/08 00:57:01;;;;;;;6.55;3.40;;;;;;;14.06;51.21;100919.50;5042333;28;20056;-72
2022/01/08 00:59:26;;;;;;;7.75;3.97;;;;;;;14.05;50.53;100916.06;5024962;28;20427;-72
2022/01/08 01:01:52;;;;;;;11.23;3.90;;;;;;;14.06;51.17;100917.81;5042567;28;20033;-72
2022/01/08 01:04:17;;;;;;;8.38;3.78;;;;;;;14.04;50.77;100911.72;5043861;28;20068;-72
2022/01/08 01:06:42;;;;;;;7.07;3.70;;;;;;;14.03;51.21;100904.78;5024430;28;20059;-72
2022/01/08 01:09:08;;;;;;;7.38;3.60;;;;;;;14.05;50.85;100899.66;5042625;28;20495;-72
2022/01/08 01:11:33;;;;;;;9.20;3.40;;;;;;;14.04;51.23;100901.34;5041474;28;20041;-69
2022/01/08 01:13:58;;;;;;;6.90;3.20;;;;;;;14.01;50.96;100903.91;5042375;28;20048;-72
2022/01/08 01:16:24;;;;;;;9.40;3.80;;;;;;;14.01;50.68;100911.69;5042745;28;20033;-71
2022/01/08 01:18:49;;;;;;;8.35;3.80;;;;;;;14.00;50.99;100907.34;5025566;28;20030;-72
2022/01/08 01:21:15;;;;;;;9.10;3.65;;;;;;;14.00;51.18;100904.75;5042657;28;20452;-71
2022/01/08 01:23:43;;;;;;;8.60;3.28;;;;;;;13.98;50.95;100896.94;5042920;28;20110;-72
2022/01/08 01:26:13;;;;;;;6.57;3.55;;;;;;;13.97;50.97;100895.19;5042709;28;20091;-70
2022/01/08 01:28:46;;;;;;;7.28;3.45;;;;;;;13.96;50.85;100902.97;5043109;28;20044;-71
2022/01/08 01:48:00;;;;;;;7.55;3.40;;;;;;;13.91;50.90;100920.13;5042740;28;20059;-73
2022/01/08 01:50:26;;;;;;;9.13;3.60;;;;;;;13.90;50.80;100920.97;5042156;28;20576;-72
2022/01/08 01:52:51;;;;;;;7.30;3.20;;;;;;;13.90;51.16;100918.38;5041336;28;20044;-70
2022/01/08 01:55:17;;;;;;;7.25;3.50;;;;;;;13.88;50.75;100918.38;5042031;28;20124;-73
2022/01/08 01:57:42;;;;;;;6.30;3.25;;;;;;;13.88;50.91;100909.72;5042021;28;20029;-73
2022/01/08 02:00:08;;;;;;;6.97;3.53;;;;;;;13.88;50.97;100909.72;5024437;28;20041;-72
2022/01/08 02:02:33;;;;;;;7.55;3.80;;;;;;;13.87;51.29;100908.00;5042420;28;20041;-71
2022/01/08 02:04:59;;;;;;;6.25;3.00;;;;;;;13.85;51.03;100905.34;5027333;28;20039;-72
2022/01/08 02:07:27;;;;;;;6.53;3.30;;;;;;;13.85;50.77;100907.06;5045768;28;20069;-73
2022/01/08 02:09:54;;;;;;;7.55;4.00;;;;;;;13.84;50.90;100901.03;5044945;28;20036;-72
2022/01/08 02:12:22;;;;;;;8.05;2.95;;;;;;;13.84;50.66;100903.63;5045817;28;20037;-72
2022/01/08 02:14:48;;;;;;;5.28;2.80;;;;;;;13.82;51.07;100908.75;5045039;28;20037;-68
2022/01/08 02:17:14;;;;;;;7.00;3.78;;;;;;;13.81;50.69;100901.84;5045109;28;20490;-72
2022/01/08 02:19:40;;;;;;;7.82;3.30;;;;;;;13.82;50.85;100911.34;5046325;28;20029;-72
2022/01/08 02:22:07;;;;;;;8.27;3.30;;;;;;;13.82;50.97;100915.66;5045657;28;20269;-73
2022/01/08 02:24:32;;;;;;;8.48;3.53;;;;;;;13.80;50.78;100923.41;5045940;28;20040;-72
2022/01/08 02:26:58;;;;;;;6.35;3.55;;;;;;;13.80;50.71;100917.34;5028313;28;20041;-73
2022/01/08 02:29:25;;;;;;;7.03;3.10;;;;;;;13.80;50.66;100917.34;5045665;28;20060;-73
2022/01/08 02:32:04;;;;;;;5.72;3.38;;;;;;;13.79;50.90;100920.81;5026667;28;20026;-75
2022/01/08 02:34:30;;;;;;;6.15;3.45;;;;;;;13.78;50.88;100912.16;5028666;28;20116;-73
2022/01/08 02:36:57;;;;;;;5.88;2.95;;;;;;;13.77;50.91;100920.75;5044605;28;20117;-73
2022/01/08 02:39:23;;;;;;;7.18;3.30;;;;;;;13.76;50.88;100918.16;5044783;28;20380;-73
2022/01/08 02:41:53;;;;;;;6.82;3.40;;;;;;;13.77;50.53;100927.66;5045001;28;20040;-73
2022/01/08 02:44:19;;;;;;;8.07;3.47;;;;;;;13.76;50.71;100920.72;5029955;28;20032;-73
2022/01/08 02:46:44;;;;;;;6.07;3.75;;;;;;;13.76;50.60;100919.03;5044677;28;20040;-72
2022/01/08 02:49:09;;;;;;;7.55;3.83;;;;;;;13.76;50.58;100926.81;5044915;28;20037;-73
2022/01/08 02:51:35;;;;;;;6.05;3.50;;;;;;;13.76;50.61;100926.81;5044180;28;20033;-74
2022/01/08 02:54:08;;;;;;;7.47;3.47;;;;;;;13.76;50.92;100931.09;5044542;28;20439;-73
2022/01/08 02:56:40;;;;;;;6.47;3.50;;;;;;;13.73;50.33;100934.50;5045739;28;20034;-71
2022/01/08 02:59:06;;;;;;;7.28;3.70;;;;;;;13.72;50.65;100932.75;5045077;28;20041;-74
2022/01/08 03:01:31;;;;;;;7.07;3.53;;;;;;;13.73;50.58;100929.31;5044248;28;20029;-73
2022/01/08 03:03:57;;;;;;;7.32;3.92;;;;;;;13.70;50.78;100931.88;5044570;28;20036;-73
2022/01/08 03:06:23;;;;;;;5.93;3.30;;;;;;;13.70;50.78;100931.88;5027652;28;20154;-74
2022/01/08 03:08:48;;;;;;;7.90;3.20;;;;;;;13.70;50.77;100925.78;5026535;28;20082;-72
2022/01/08 03:11:14;;;;;;;9.45;4.07;;;;;;;13.69;50.44;100924.94;5025949;28;20048;-72
2022/01/08 03:13:39;;;;;;;7.28;4.13;;;;;;;13.68;50.60;100925.78;5044773;28;20032;-74
2022/01/08 03:16:04;;;;;;;6.78;3.90;;;;;;;13.68;50.37;100928.38;5044186;28;20033;-73
2022/01/08 03:18:30;;;;;;;7.32;3.72;;;;;;;13.69;50.61;100924.94;5045893;28;20431;-73
2022/01/08 03:21:11;;;;;;;7.85;3.63;;;;;;;13.68;50.70;100920.59;5043281;28;20065;-73
2022/01/08 03:23:43;;;;;;;7.28;3.63;;;;;;;13.67;50.83;100918.84;5029673;28;20040;-71
2022/01/08 03:26:10;;;;;;;6.25;3.22;;;;;;;13.66;50.88;100925.75;5044935;28;20037;-73
2022/01/08 03:28:36;;;;;;;8.55;3.97;;;;;;;13.64;50.48;100924.84;5044171;28;20037;-73
2022/01/08 03:31:01;;;;;;;8.07;3.75;;;;;;;13.66;50.62;100930.06;5043726;28;20036;-72
2022/01/08 03:33:26;;;;;;;9.30;4.00;;;;;;;13.64;50.75;100936.94;5044598;28;20033;-73
2022/01/08 03:35:52;;;;;;;7.10;3.80;;;;;;;13.63;50.59;100928.31;5025688;28;20064;-73
2022/01/08 03:38:17;;;;;;;7.97;4.07;;;;;;;13.63;50.10;100930.00;5045144;28;20442;-73
2022/01/08 03:40:43;;;;;;;9.05;3.60;;;;;;;13.64;50.48;100932.63;5039199;28;20143;-72
2022/01/08 03:43:08;;;;;;;8.50;3.92;;;;;;;13.63;50.23;100932.59;5043864;28;20396;-72
2022/01/08 03:45:33;;;;;;;8.15;4.38;;;;;;;13.64;50.28;100936.94;5026398;28;20116;-71
2022/01/08 03:50:30;;;;;;;8.77;4.13;;;;;;;13.63;50.03;100937.78;5044159;28;20040;-70
2022/01/08 03:52:55;;;;;;;7.32;3.72;;;;;;;13.64;50.12;100936.94;5024316;28;20061;-72
2022/01/08 03:55:22;;;;;;;7.57;3.55;;;;;;;13.63;50.42;100935.19;5043586;28;20037;-72
2022/01/08 03:57:47;;;;;;;9.00;3.70;;;;;;;13.62;50.32;100923.97;5043167;28;20053;-68
2022/01/08 04:00:13;;;;;;;9.00;3.78;;;;;;;13.61;50.53;100927.38;5044624;28;20124;-72
2022/01/08 04:02:39;;;;;;;7.13;3.60;;;;;;;13.59;50.50;100925.63;5044241;28;20029;-71
2022/01/08 04:05:05;;;;;;;8.27;3.90;;;;;;;13.60;50.22;100928.22;5043563;28;20446;-69
2022/01/08 04:07:30;;;;;;;7.20;3.63;;;;;;;13.60;50.42;100940.31;5043228;28;20506;-72
2022/01/08 04:09:56;;;;;;;8.02;3.90;;;;;;;13.60;50.12;100940.31;5043145;28;20110;-72
2022/01/08 04:12:31;;;;;;;6.47;3.58;;;;;;;13.59;50.31;100946.34;5043577;28;20033;-73
2022/01/08 04:15:06;;;;;;;7.07;3.15;;;;;;;13.59;50.29;100948.91;5027144;28;20499;-72
2022/01/08 04:17:31;;;;;;;6.43;3.50;;;;;;;13.58;50.15;100947.16;5043953;28;20452;-72
2022/01/08 04:19:56;;;;;;;6.55;3.08;;;;;;;13.58;50.36;100942.00;5042817;28;20044;-71
2022/01/08 04:22:23;;;;;;;6.38;3.35;;;;;;;13.56;50.37;100938.53;5043669;28;20060;-71
2022/01/08 04:24:49;;;;;;;6.63;3.42;;;;;;;13.56;50.26;100938.53;5026948;28;20116;-69
2022/01/08 04:27:15;;;;;;;7.63;3.40;;;;;;;13.56;50.39;100948.88;5042121;28;20056;-71
2022/01/08 04:29:41;;;;;;;6.43;3.55;;;;;;;13.56;49.89;100954.06;5043397;28;20447;-72
2022/01/08 04:32:06;;;;;;;8.85;3.50;;;;;;;13.55;50.22;100965.25;5042755;28;20063;-71
2022/01/08 04:34:32;;;;;;;7.78;3.60;;;;;;;13.53;50.19;100960.06;5044566;28;20474;-72
2022/01/08 04:36:58;;;;;;;7.88;3.65;;;;;;;13.54;50.22;100972.13;5042532;28;20036;-71
2022/01/08 04:39:23;;;;;;;9.52;3.63;;;;;;;13.52;50.04;100963.47;5043158;28;20069;-70
2022/01/08 04:41:48;;;;;;;7.82;3.65;;;;;;;13.52;50.35;100968.66;5042368;28;20426;-71
2022/01/08 04:44:14;;;;;;;7.95;3.55;;;;;;;13.52;50.20;100963.47;5043675;28;20033;-70
2022/01/08 04:46:41;;;;;;;6.47;3.22;;;;;;;13.52;50.04;100967.75;5042729;28;20034;-72
2022/01/08 04:49:07;;;;;;;8.27;3.72;;;;;;;13.50;50.10;100966.03;5042944;28;20029;-71
2022/01/08 04:51:32;;;;;;;7.47;3.15;;;;;;;13.50;50.26;100970.31;5042064;28;20033;-71
2022/01/08 04:53:57;;;;;;;7.72;4.18;;;;;;;13.48;49.92;100972.91;5041934;28;20060;-72
2022/01/08 04:56:23;;;;;;;8.55;3.58;;;;;;;13.48;50.15;100983.25;5042970;28;20495;-71
2022/01/08 04:58:48;;;;;;;10.82;3.72;;;;;;;13.48;50.00;100980.66;5042833;28;20056;-71
2022/01/08 05:01:14;;;;;;;7.70;3.45;;;;;;;13.47;49.87;100984.09;5024666;28;20025;-71
2022/01/08 05:03:40;;;;;;;6.25;3.55;;;;;;;13.47;50.04;100976.31;5042742;28;20033;-71
2022/01/08 05:06:05;;;;;;;7.55;3.45;;;;;;;13.47;49.99;100984.09;5040463;28;20033;-71
2022/01/08 05:08:31;;;;;;;6.55;3.03;;;;;;;13.47;49.95;100983.22;5027060;28;20025;-71
2022/01/08 05:10:56;;;;;;;8.23;3.47;;;;;;;13.46;49.92;100978.88;5040973;28;20461;-71
2022/01/08 05:13:21;;;;;;;6.63;3.38;;;;;;;13.45;50.00;100978.03;5042361;28;20033;-67
2022/01/08 05:15:47;;;;;;;6.20;3.38;;;;;;;13.46;50.07;100978.88;5042197;28;20029;-71
2022/01/08 05:18:12;;;;;;;7.15;3.42;;;;;;;13.45;49.92;100983.19;5044758;28;20041;-71
2022/01/08 05:20:41;;;;;;;7.45;3.50;;;;;;;13.45;49.81;100995.25;5041957;28;20029;-69
2022/01/08 05:23:07;;;;;;;6.50;3.10;;;;;;;13.43;50.01;100990.06;5042666;28;20495;-71
2022/01/08 05:25:33;;;;;;;7.05;3.60;;;;;;;13.44;49.90;100986.63;5042082;28;20447;-72
2022/01/08 05:28:00;;;;;;;8.80;3.60;;;;;;;13.42;49.82;100985.72;5024292;28;20101;-71
2022/01/08 05:30:26;;;;;;;6.43;3.13;;;;;;;13.43;49.96;100984.00;5042796;28;20032;-71
2022/01/08 05:32:52;;;;;;;6.28;3.13;;;;;;;13.42;49.75;100977.09;5042594;28;20043;-71
2022/01/08 05:35:19;;;;;;;6.15;3.00;;;;;;;13.40;49.65;100982.25;5042508;28;20045;-72
2022/01/08 05:37:44;;;;;;;6.25;2.63;;;;;;;13.41;49.82;100986.53;5042652;28;20040;-71
2022/01/08 05:40:10;;;;;;;7.47;3.40;;;;;;;13.40;49.87;100992.59;5046482;28;20038;-71
2022/01/08 05:42:36;;;;;;;8.32;3.75;;;;;;;13.42;49.67;100988.28;5046439;28;20115;-71
2022/01/08 05:45:03;;;;;;;6.97;3.22;;;;;;;13.39;49.88;100977.91;5046576;28;20065;-73
2022/01/08 05:47:31;;;;;;;6.72;2.97;;;;;;;13.40;49.85;100984.81;5047089;28;20037;-72
2022/01/08 05:49:57;;;;;;;8.23;2.85;;;;;;;13.39;49.94;100988.25;5045939;28;20040;-69
2022/01/08 05:52:23;;;;;;;8.40;3.53;;;;;;;13.38;49.86;100986.50;5045902;28;20102;-72
2022/01/08 05:54:49;;;;;;;6.95;3.22;;;;;;;13.39;49.74;100995.13;5045546;28;20103;-71
2022/01/08 05:57:14;;;;;;;5.85;3.17;;;;;;;13.37;49.35;101000.28;5045781;28;20044;-71
2022/01/08 05:59:40;;;;;;;6.70;3.13;;;;;;;13.38;49.86;101004.63;5046532;28;20071;-70
2022/01/08 06:02:08;;;;;;;6.82;3.30;;;;;;;13.37;49.80;101005.44;5045691;28;20419;-71
2022/01/08 06:04:33;;;;;;;7.65;3.17;;;;;;;13.37;49.57;101009.78;5046265;28;20038;-71
2022/01/08 06:06:59;;;;;;;7.30;3.33;;;;;;;13.36;49.73;101011.44;5027965;28;20048;-72
2022/01/08 06:09:24;;;;;;;8.10;3.20;;;;;;;13.36;49.67;101016.63;5028257;28;20193;-71
2022/01/08 06:11:49;;;;;;;5.72;3.28;;;;;;;13.37;49.66;101014.94;5025814;28;20040;-69
2022/01/08 06:14:15;;;;;;;7.75;3.05;;;;;;;13.34;49.79;101010.53;5046474;28;20033;-71
2022/01/08 06:16:40;;;;;;;8.57;3.17;;;;;;;13.34;49.73;101021.75;5047906;28;20033;-71
2022/01/08 06:19:09;;;;;;;7.18;2.92;;;;;;;13.32;49.57;101020.88;5053195;28;20072;-70
2022/01/08 06:21:35;;;;;;;8.88;3.45;;;;;;;13.33;49.20;101021.72;5053168;28;20743;-70
2022/01/08 06:24:00;;;;;;;6.07;3.05;;;;;;;13.33;49.78;101024.31;5053233;28;20104;-71
2022/01/08 06:26:25;;;;;;;6.07;3.17;;;;;;;13.32;49.77;101027.75;5052942;28;20029;-70
2022/01/08 06:28:51;;;;;;;6.63;3.22;;;;;;;13.32;49.65;101027.75;5053394;28;20028;-70
2022/01/08 06:31:23;;;;;;;6.35;2.90;;;;;;;13.32;49.53;101030.34;5053742;28;20550;-70
2022/01/08 06:33:49;;;;;;;8.40;2.83;;;;;;;13.31;49.64;101026.00;5054617;28;20039;-73
2022/01/08 06:36:17;;;;;;;6.63;2.67;;;;;;;13.31;49.58;101023.41;5055430;28;20399;-72
2022/01/08 06:38:43;;;;;;;6.72;2.60;;;;;;;13.30;49.69;101019.09;5055345;28;20041;-70
2022/01/08 06:41:09;;;;;;;6.25;2.72;;;;;;;13.29;49.57;101018.19;5037280;28;20107;-72
2022/01/08 06:43:34;;;;;;;5.90;2.60;;;;;;;13.30;49.73;101016.50;5055264;28;20068;-72
2022/01/08 06:46:00;;;;;;;5.95;2.55;;;;;;;13.30;49.69;101006.16;5054971;28;20371;-72
2022/01/08 06:48:25;;;;;;;6.13;3.00;;;;;;;13.30;49.63;101003.56;5037256;28;20041;-72
2022/01/08 06:50:50;;;;;;;5.63;2.42;;;;;;;13.29;49.61;100996.63;5053813;28;20059;-72
2022/01/08 06:53:16;;;;;;;5.30;2.42;;;;;;;13.28;49.81;100992.28;5054814;28;20581;-73
2022/01/08 06:55:41;;;;;;;6.70;3.30;;;;;;;13.28;49.66;100993.16;5037279;28;20087;-72
2022/01/08 06:58:07;;;;;;;8.38;2.67;;;;;;;13.28;49.63;100989.72;5020897;28;20040;-72
2022/01/08 07:00:32;;;;;;;6.95;2.80;;;;;;;13.28;49.63;100994.88;5055322;28;20033;-73
2022/01/08 07:02:59;;;;;;;5.70;2.60;;;;;;;13.27;49.42;101003.47;5054694;28;20471;-74
2022/01/08 07:05:25;;;;;;;5.43;2.63;;;;;;;13.27;49.66;101009.56;5055133;28;20033;-73
2022/01/08 07:07:50;;;;;;;6.80;2.90;;;;;;;13.27;49.66;101008.66;5055167;28;20120;-73
2022/01/08 07:10:15;;;;;;;8.23;2.58;;;;;;;13.27;49.59;100998.31;5037301;28;20032;-72
2022/01/08 07:12:41;;;;;;;5.82;2.30;;;;;;;13.27;49.39;100995.72;5055511;28;20116;-73
2022/01/08 07:15:07;;;;;;;9.65;2.80;;;;;;;13.26;49.70;101009.50;5037310;28;20108;-73
2022/01/08 07:17:32;;;;;;;4.65;2.35;;;;;;;13.25;49.44;101000.88;5035932;28;20064;-73
2022/01/08 07:19:58;;;;;;;6.00;2.60;;;;;;;13.24;49.74;100993.94;5035122;28;20120;-73
2022/01/08 07:22:23;;;;;;;5.25;2.30;;;;;;;13.24;49.76;100993.94;5017564;28;20045;-71
2022/01/08 07:24:48;;;;;;;8.15;2.63;;;;;;;13.25;49.58;101005.19;5017427;28;20029;-71
2022/01/08 07:27:14;;;;;;;4.93;2.38;;;;;;;13.25;49.46;100994.84;5035244;28;20025;-72
2022/01/08 07:29:39;;;;;;;5.30;2.25;;;;;;;13.24;49.63;100998.25;5017172;28;20044;-74
2022/01/08 07:32:05;;;;;;;5.35;2.40;;;;;;;13.24;49.66;101004.28;5034900;28;20116;-71
2022/01/08 07:34:30;;;;;;;6.05;2.30;;;;;;;13.24;49.33;100993.06;5034833;28;20095;-71
2022/01/08 07:36:56;;;;;;;4.60;2.00;;;;;;;13.24;49.53;101000.84;5045610;28;20072;-71
2022/01/08 07:39:21;;;;;;;5.93;2.42;;;;;;;13.22;49.69;101003.41;5054560;28;20053;-72
2022/01/08 07:41:47;;;;;;;5.18;2.28;;;;;;;13.22;49.45;101003.41;5054489;28;20410;-71
2022/01/08 07:44:12;;;;;;;6.93;2.78;;;;;;;13.23;48.96;100999.09;5053591;28;20479;-72
2022/01/08 07:46:37;;;;;;;6.88;2.50;;;;;;;13.26;48.97;101001.72;5062464;28;20528;-70
2022/01/08 07:49:03;;;;;;;4.15;2.35;;;;;;;13.30;48.81;100999.25;5059815;28;20036;-73
2022/01/08 07:51:28;;;;;;;5.50;2.40;;;;;;;13.33;48.69;100988.94;5054256;28;20063;-72
2022/01/08 07:53:53;;;;;;;6.45;2.67;;;;;;;13.37;48.64;100989.91;5053738;28;20422;-73
2022/01/08 07:56:19;;;;;;;4.93;2.30;;;;;;;13.42;48.70;100983.13;5054056;28;20029;-72
2022/01/08 07:58:44;;;;;;;5.45;2.40;;;;;;;13.45;48.61;100975.44;5053840;28;20036;-72
2022/01/08 08:01:09;;;;;;;8.65;2.90;;;;;;;13.49;48.49;100979.81;5053271;28;20079;-72
2022/01/08 08:03:35;;;;;;;5.38;2.55;;;;;;;13.53;48.55;100985.06;5054249;28;20033;-73
2022/01/08 08:06:00;;;;;;;6.43;2.35;;;;;;;13.55;48.76;100979.06;5054765;28;20029;-73
2022/01/08 08:08:26;;;;;;;6.00;2.58;;;;;;;13.57;48.54;100981.66;5053108;28;20040;-73
2022/01/08 08:10:51;;;;;;;4.28;2.08;;;;;;;13.59;48.71;100978.28;5036014;28;20033;-73
2022/01/08 08:13:18;;;;;;;6.05;2.17;;;;;;;13.61;48.58;100980.91;5053432;28;20535;-73
2022/01/08 08:15:43;;;;;;;3.65;1.88;;;;;;;13.63;48.62;100972.31;5053782;28;20063;-72
2022/01/08 08:18:11;;;;;;;6.13;2.30;;;;;;;13.64;48.55;100975.78;5047538;28;20029;-73
2022/01/08 08:20:36;;;;;;;;;;;;;;;13.66;49.35;100974.09;5047107;28;20593;-72
2022/01/08 08:23:02;;;;;;;5.53;2.25;;;;;;;13.64;48.64;100965.41;5047565;28;20016;-74
2022/01/08 08:25:27;;;;;;;5.60;1.92;;;;;;;13.61;48.64;100966.22;5045901;28;20483;-73
2022/01/08 08:27:53;;;;;;;4.35;1.90;;;;;;;13.60;48.81;100971.41;5046961;28;20403;-74
2022/01/08 08:30:18;;;;;;;4.15;2.00;;;;;;;13.59;48.87;100960.13;5041913;28;20388;-74
2022/01/08 08:32:44;;;;;;;6.78;2.00;;;;;;;13.59;48.91;100959.28;5042678;28;20401;-74
2022/01/08 08:35:10;;;;;;;4.47;2.30;;;;;;;13.57;48.80;100959.25;5047644;28;20048;-72
2022/01/08 08:37:36;;;;;;;5.75;1.80;;;;;;;13.55;48.96;100962.66;5054235;28;20025;-74
2022/01/08 08:40:05;;;;;;;3.85;1.70;;;;;;;13.55;48.87;100967.84;5053391;28;20454;-73
2022/01/08 08:42:30;;;;;;;5.35;2.00;;;;;;;13.56;48.93;100956.66;5053742;28;20033;-74
2022/01/08 08:44:56;;;;;;;4.45;2.00;;;;;;;13.55;48.87;100950.56;5053868;28;20091;-73
2022/01/08 08:47:21;;;;;;;4.72;2.30;;;;;;;13.58;48.70;100952.34;5053514;28;20033;-73
2022/01/08 08:49:48;;;;;;;4.82;1.98;;;;;;;13.59;48.71;100954.09;5053792;28;20037;-73
2022/01/08 08:52:14;;;;;;;5.95;2.47;;;;;;;13.60;48.65;100950.69;5053913;28;20033;-73
2022/01/08 08:54:41;;;;;;;4.88;2.15;;;;;;;13.62;48.48;100948.97;5053507;28;20040;-73
2022/01/08 08:57:07;;;;;;;4.68;2.05;;;;;;;13.62;48.36;100939.50;5053733;28;20108;-73
2022/01/08 08:59:32;;;;;;;5.25;2.17;;;;;;;13.64;48.36;100947.28;5053605;28;20120;-74
2022/01/08 09:01:58;;;;;;;7.22;2.80;;;;;;;13.65;48.36;100949.03;5053108;28;20032;-74
2022/01/08 09:04:23;;;;;;;3.75;2.13;;;;;;;13.65;48.33;100949.03;5036103;28;20356;-74
2022/01/08 09:06:49;;;;;;;4.88;2.30;;;;;;;13.65;48.50;100944.72;5048180;28;20036;-73
2022/01/08 09:09:15;;;;;;;4.20;2.22;;;;;;;13.69;48.11;100945.66;5043876;28;20044;-73
2022/01/08 09:11:41;;;;;;;5.13;2.70;;;;;;;13.69;48.27;100949.97;5032982;28;20029;-74
2022/01/08 09:14:07;;;;;;;5.65;2.30;;;;;;;13.69;48.51;100944.81;5045029;28;20029;-75
2022/01/08 09:16:34;;;;;;;4.65;2.30;;;;;;;13.70;48.19;100954.28;5047875;28;20052;-72
2022/01/08 09:19:00;;;;;;;4.80;2.13;;;;;;;13.71;48.28;100953.44;5049953;28;20021;-74
2022/01/08 09:21:25;;;;;;;7.38;2.20;;;;;;;13.71;48.48;100941.41;5057106;28;20037;-74
2022/01/08 09:23:51;;;;;;;5.72;2.25;;;;;;;13.71;48.27;100943.97;5056725;28;20433;-71
2022/01/08 09:26:17;;;;;;;5.60;2.40;;;;;;;13.73;48.12;100937.09;5056991;28;20275;-73
2022/01/08 09:28:43;;;;;;;6.00;2.63;;;;;;;13.73;48.17;100925.88;5057023;28;20063;-73
2022/01/08 09:31:08;;;;;;;6.72;2.97;;;;;;;13.74;48.03;100925.91;5056512;28;20033;-73
2022/01/08 09:33:35;;;;;;;6.35;2.67;;;;;;;13.74;48.10;100923.31;5056687;28;20531;-73
2022/01/08 09:36:01;;;;;;;6.05;2.63;;;;;;;13.75;48.17;100918.97;5056883;28;20024;-73
2022/01/08 09:38:26;;;;;;;6.20;2.38;;;;;;;13.74;48.01;100912.94;5038813;28;20025;-74
2022/01/08 09:40:52;;;;;;;7.35;2.55;;;;;;;13.75;48.06;100909.50;5056372;28;20128;-72
2022/01/08 09:43:18;;;;;;;4.97;2.42;;;;;;;13.76;48.16;100911.25;5056695;28;20121;-73
2022/01/08 09:45:44;;;;;;;4.53;2.40;;;;;;;13.76;48.29;100910.38;5056158;28;20407;-72
2022/01/08 09:48:09;;;;;;;5.15;2.35;;;;;;;13.76;47.99;100903.50;5055157;28;20111;-72
2022/01/08 09:50:35;;;;;;;4.65;2.40;;;;;;;13.77;48.02;100904.34;5055613;28;20035;-72
2022/01/08 09:53:00;;;;;;;6.18;2.90;;;;;;;13.76;48.08;100900.91;5056503;28;20033;-72
2022/01/08 09:55:27;;;;;;;5.20;2.40;;;;;;;13.76;48.29;100895.72;5055828;28;20033;-72
2022/01/08 09:57:53;;;;;;;5.88;2.17;;;;;;;13.76;48.36;100882.78;5056290;28;20094;-72
2022/01/08 10:00:23;;;;;;;6.47;2.30;;;;;;;13.76;48.02;100877.59;5055219;28;21073;-72
2022/01/08 10:02:50;;;;;;;5.80;3.00;;;;;;;13.76;47.98;100869.81;5054365;28;20040;-72
2022/01/08 10:05:16;;;;;;;4.63;2.20;;;;;;;13.77;48.17;100862.91;5054912;28;20059;-72
2022/01/08 10:07:42;;;;;;;4.70;2.20;;;;;;;13.77;48.07;100861.19;5055864;28;20387;-73
2022/01/08 10:10:13;;;;;;;4.90;2.38;;;;;;;13.77;48.23;100856.00;5055847;28;20033;-72
2022/01/08 10:12:45;;;;;;;5.32;2.42;;;;;;;13.78;48.14;100846.53;5056095;28;20033;-73
2022/01/08 10:18:07;;;;;;;6.85;2.63;;;;;;;13.79;48.10;100823.22;5056889;28;20048;-72
2022/01/08 10:20:34;;;;;;;6.75;2.40;;;;;;;13.79;48.04;100815.47;5056745;28;20033;-74
2022/01/08 10:23:20;;;;;;;7.95;2.97;;;;;;;13.80;48.46;100801.66;5056235;28;20029;-73
2022/01/08 10:25:59;;;;;;;6.18;2.60;;;;;;;13.81;48.34;100803.41;5055991;28;20033;-74
2022/01/08 10:28:40;;;;;;;5.80;2.40;;;;;;;13.81;48.30;100793.06;5056046;28;20029;-74
2022/01/08 10:31:06;;;;;;;7.90;2.97;;;;;;;13.80;48.15;100783.53;5054120;28;20025;-74
2022/01/08 10:33:31;;;;;;;6.20;2.92;;;;;;;13.82;48.02;100787.00;5055488;28;20079;-73
2022/01/08 10:35:57;;;;;;;5.30;2.47;;;;;;;13.83;48.10;100782.72;5055405;28;20443;-73
2022/01/08 10:38:26;;;;;;;4.05;2.35;;;;;;;13.83;48.25;100778.38;5020835;28;20033;-74
2022/01/08 10:40:51;;;;;;;9.43;3.10;;;;;;;13.85;47.99;100777.53;5055669;28;20044;-75
2022/01/08 10:43:28;;;;;;;7.15;2.60;;;;;;;13.83;48.17;100762.84;5037695;28;20087;-74
2022/01/08 10:45:56;;;;;;;6.38;2.60;;;;;;;13.82;48.20;100758.50;5055264;28;20029;-74
2022/01/08 10:48:30;;;;;;;5.70;2.22;;;;;;;13.83;48.41;100757.66;5054904;28;20036;-74
2022/01/08 10:51:18;;;;;;;4.88;1.95;;;;;;;13.83;48.51;100744.72;5055287;28;20112;-75
2022/01/08 10:54:14;;;;;;;6.63;2.28;;;;;;;13.84;48.55;100740.41;5053014;28;20029;-73
2022/01/08 10:56:45;;;;;;;6.20;2.25;;;;;;;13.84;48.30;100735.25;5036354;28;20479;-74
2022/01/08 10:59:19;;;;;;;7.00;2.65;;;;;;;13.85;48.23;100725.75;5054165;28;20472;-75
2022/01/08 11:01:48;;;;;;;5.70;2.38;;;;;;;13.85;48.29;100723.16;5036230;28;20467;-75
2022/01/08 11:04:16;;;;;;;8.50;2.50;;;;;;;13.84;48.45;100727.47;5055079;28;20025;-74
2022/01/08 11:06:59;;;;;;;5.97;2.47;;;;;;;13.85;48.34;100707.59;5055323;28;20131;-74
2022/01/08 11:09:26;;;;;;;5.63;2.38;;;;;;;13.84;48.43;100704.16;5053326;28;20029;-73
2022/01/08 11:11:53;;;;;;;5.43;2.30;;;;;;;13.84;48.42;100691.19;5054418;28;20033;-74
2022/01/08 11:14:45;;;;;;;6.88;2.60;;;;;;;13.84;48.26;100696.38;5054982;28;20056;-74
2022/01/08 11:17:12;;;;;;;5.00;2.40;;;;;;;13.85;48.38;100681.69;5053463;28;20080;-74
2022/01/08 11:19:42;;;;;;;5.38;2.30;;;;;;;13.86;48.29;100673.09;5049811;28;20024;-74
2022/01/08 11:22:10;;;;;;;4.88;1.98;;;;;;;13.87;48.42;100669.66;5054992;28;20029;-73
2022/01/08 11:24:38;;;;;;;6.10;2.60;;;;;;;13.87;48.24;100660.16;5054730;28;20025;-74
2022/01/08 11:27:07;;;;;;;6.03;2.28;;;;;;;13.88;48.43;100661.00;5050869;28;20158;-74
2022/01/08 11:29:35;;;;;;;6.88;2.35;;;;;;;13.88;48.44;100656.72;5045378;28;20057;-74
2022/01/08 11:32:03;;;;;;;4.75;2.10;;;;;;;13.89;48.63;100650.69;5045111;28;20474;-74
2022/01/08 11:34:28;;;;;;;;;;;;;;;13.92;49.07;100647.25;5046724;28;20098;-74
2022/01/08 11:36:56;;;;;;;6.43;2.63;;;;;;;13.91;48.54;100635.16;5045756;28;19948;-62
2022/01/08 11:39:26;;;;;;;8.10;2.17;;;;;;;13.92;48.49;100631.72;5043984;28;20021;-62
2022/01/08 11:41:53;;;;;;;7.68;2.25;;;;;;;13.92;48.60;100621.34;5046809;28;20029;-62
2022/01/08 11:44:19;;;;;;;5.07;2.13;;;;;;;13.93;48.43;100620.47;5044523;28;20045;-62
2022/01/08 11:46:47;;;;;;;4.63;2.03;;;;;;;13.92;48.44;100614.44;5043480;28;20033;-62